createdAt,value
2023-05-09T00:00:08.491Z,83.07
2023-05-09T00:02:36.228Z,80.38
2023-05-09T00:05:04.188Z,79.46
2023-05-09T00:07:32.172Z,78.75
2023-05-09T00:09:59.632Z,78.21
2023-05-09T00:12:27.496Z,78.39
2023-05-09T00:14:56.733Z,79.89
2023-05-09T00:17:24.516Z,80.02
2023-05-09T00:19:52.929Z,80.84
2023-05-09T00:22:22.236Z,81.44
2023-05-09T00:24:49.764Z,82.40
2023-05-09T00:27:17.797Z,82.62
2023-05-09T00:29:45.487Z,82.14
2023-05-09T00:32:14.738Z,82.90
2023-05-09T00:34:42.369Z,83.84
2023-05-09T00:37:09.830Z,85.47
2023-05-09T00:39:37.283Z,87.46
2023-05-09T00:42:04.932Z,87.29
2023-05-09T00:44:32.422Z,87.50
2023-05-09T00:46:59.928Z,88.51
2023-05-09T00:49:28.801Z,90.75
2023-05-09T00:51:56.806Z,91.31
2023-05-09T00:54:24.304Z,89.86
2023-05-09T00:56:52.379Z,91.03
2023-05-09T00:59:19.856Z,89.20
2023-05-09T01:01:48.525Z,88.50
2023-05-09T01:04:16.497Z,88.93
2023-05-09T01:06:54.298Z,88.67
2023-05-09T01:09:26.072Z,88.15
2023-05-09T01:12:03.522Z,86.81
2023-05-09T01:14:39.476Z,87.12
2023-05-09T01:17:13.853Z,85.85
2023-05-09T01:20:10.643Z,86.31
2023-05-09T01:22:44.545Z,86.71
2023-05-09T01:25:39.388Z,85.51
2023-05-09T01:28:17.778Z,85.35
2023-05-09T01:30:48.425Z,85.13
2023-05-09T01:33:20.045Z,84.97
2023-05-09T01:35:53.149Z,86.05
2023-05-09T01:38:24.841Z,84.37
2023-05-09T01:40:55.845Z,82.63
2023-05-09T01:43:26.653Z,84.93
2023-05-09T01:45:56.800Z,85.01
2023-05-09T01:48:26.299Z,84.92
2023-05-09T01:50:55.753Z,84.61
2023-05-09T01:53:25.733Z,85.13
2023-05-09T01:55:54.108Z,84.52
2023-05-09T01:58:23.023Z,84.27
2023-05-09T02:00:51.853Z,83.29
2023-05-09T02:03:21.921Z,83.59
2023-05-09T02:05:51.022Z,83.21
2023-05-09T02:08:21.649Z,83.67
2023-05-09T02:10:50.063Z,82.73
2023-05-09T02:13:17.995Z,83.37
2023-05-09T02:15:46.293Z,83.00
2023-05-09T02:18:13.840Z,82.37
2023-05-09T02:20:42.677Z,81.46
2023-05-09T02:23:10.159Z,81.23
2023-05-09T02:25:38.686Z,80.69
2023-05-09T02:28:07.105Z,80.30
2023-05-09T02:30:37.954Z,79.54
2023-05-09T02:33:08.018Z,79.13
2023-05-09T02:35:37.176Z,80.21
2023-05-09T02:38:06.347Z,80.59
2023-05-09T02:40:35.018Z,83.25
2023-05-09T02:43:02.898Z,82.04
2023-05-09T02:45:30.550Z,80.03
2023-05-09T02:47:58.038Z,79.63
2023-05-09T02:50:25.574Z,79.41
2023-05-09T02:52:53.026Z,79.96
2023-05-09T02:55:21.827Z,83.88
2023-05-09T02:57:51.985Z,90.63
2023-05-09T03:00:25.678Z,90.97
2023-05-09T03:02:53.351Z,92.26
2023-05-09T03:05:21.135Z,92.84
2023-05-09T03:07:48.946Z,95.60
2023-05-09T03:10:16.655Z,97.18
2023-05-09T03:12:45.559Z,100.00
2023-05-09T03:15:13.516Z,100.00
2023-05-09T03:17:41.302Z,97.42
2023-05-09T03:20:10.267Z,99.64
2023-05-09T03:22:37.784Z,100.00
2023-05-09T03:25:06.371Z,100.00
2023-05-09T03:27:33.923Z,100.00
2023-05-09T03:30:02.844Z,100.00
2023-05-09T03:32:30.502Z,100.00
2023-05-09T03:34:58.196Z,100.00
2023-05-09T03:37:27.095Z,100.00
2023-05-09T03:39:54.831Z,100.00
2023-05-09T03:42:22.857Z,100.00
2023-05-09T03:44:50.334Z,100.00
2023-05-09T03:47:19.131Z,99.92
2023-05-09T03:49:46.729Z,97.13
2023-05-09T03:52:14.268Z,93.35
2023-05-09T03:54:41.755Z,96.69
2023-05-09T03:57:09.204Z,96.17
2023-05-09T03:59:36.669Z,93.86
2023-05-09T04:02:04.154Z,92.56
2023-05-09T04:04:32.984Z,89.82
2023-05-09T04:07:00.442Z,86.80
2023-05-09T04:09:28.780Z,83.36
2023-05-09T04:11:56.230Z,78.91
2023-05-09T04:14:23.703Z,74.43
2023-05-09T04:16:51.180Z,70.16
2023-05-09T04:19:18.646Z,66.28
2023-05-09T04:21:47.431Z,62.28
2023-05-09T04:24:15.133Z,59.73
2023-05-09T04:26:42.729Z,57.86
2023-05-09T04:29:10.432Z,56.47
2023-05-09T04:31:37.972Z,57.05
2023-05-09T04:34:05.681Z,58.73
2023-05-09T04:36:33.848Z,61.14
2023-05-09T04:39:02.726Z,62.62
2023-05-09T04:41:30.902Z,63.74
2023-05-09T04:43:58.376Z,67.68
2023-05-09T04:46:26.099Z,66.98
2023-05-09T04:48:53.733Z,67.10
2023-05-09T04:51:21.299Z,66.89
2023-05-09T04:53:48.753Z,66.54
2023-05-09T04:56:17.538Z,62.33
2023-05-09T04:58:44.985Z,58.63
2023-05-09T05:01:12.583Z,57.29
2023-05-09T05:03:40.063Z,60.29
2023-05-09T05:06:07.844Z,61.63
2023-05-09T05:08:35.293Z,63.37
2023-05-09T05:11:02.773Z,65.27
2023-05-09T05:13:31.554Z,65.56
2023-05-09T05:15:59.388Z,67.15
2023-05-09T05:18:26.934Z,68.99
2023-05-09T05:20:54.381Z,70.71
2023-05-09T05:23:21.994Z,73.56
2023-05-09T05:25:49.630Z,71.90
2023-05-09T05:28:17.100Z,71.03
2023-05-09T05:30:45.915Z,69.81
2023-05-09T05:33:13.374Z,70.30
2023-05-09T05:35:40.939Z,69.32
2023-05-09T05:38:08.403Z,66.46
2023-05-09T05:40:35.853Z,65.29
2023-05-09T05:43:03.336Z,65.05
2023-05-09T05:45:31.263Z,65.55
2023-05-09T05:48:00.964Z,66.83
2023-05-09T05:50:28.474Z,67.67
2023-05-09T05:52:55.930Z,71.44
2023-05-09T05:55:23.420Z,72.48
2023-05-09T05:57:50.891Z,74.31
2023-05-09T06:00:18.791Z,77.40
2023-05-09T06:02:47.709Z,78.32
2023-05-09T06:05:16.991Z,76.54
2023-05-09T06:07:45.546Z,73.81
2023-05-09T06:10:13.103Z,71.93
2023-05-09T06:12:40.557Z,70.78
2023-05-09T06:15:08.872Z,71.57
2023-05-09T06:17:36.512Z,69.46
2023-05-09T06:20:04.498Z,65.05
2023-05-09T06:22:33.305Z,61.93
2023-05-09T06:25:00.750Z,58.05
2023-05-09T06:27:28.224Z,57.55
2023-05-09T06:29:55.716Z,53.60
2023-05-09T06:32:24.890Z,50.66
2023-05-09T06:34:52.637Z,47.67
2023-05-09T06:37:20.163Z,46.80
2023-05-09T06:39:50.265Z,42.38
2023-05-09T06:42:17.744Z,37.31
2023-05-09T06:44:45.272Z,37.31
2023-05-09T06:47:12.798Z,35.21
2023-05-09T06:49:40.293Z,34.11
2023-05-09T06:52:07.739Z,34.72
2023-05-09T06:54:35.190Z,35.09
2023-05-09T06:57:03.977Z,33.09
2023-05-09T06:59:31.466Z,33.34
2023-05-09T07:01:59.018Z,32.43
2023-05-09T07:04:26.611Z,34.26
2023-05-09T07:06:54.127Z,36.39
2023-05-09T07:09:21.838Z,36.93
2023-05-09T07:11:49.291Z,38.55
2023-05-09T07:14:18.086Z,39.38
2023-05-09T07:16:46.394Z,38.38
2023-05-09T07:19:13.951Z,38.20
2023-05-09T07:21:41.414Z,36.03
2023-05-09T07:24:08.950Z,34.81
2023-05-09T07:26:36.457Z,33.96
2023-05-09T07:29:03.981Z,34.24
2023-05-09T07:31:35.139Z,36.04
2023-05-09T07:34:04.201Z,35.82
2023-05-09T07:36:33.179Z,35.46
2023-05-09T07:39:01.655Z,36.55
2023-05-09T07:41:29.120Z,36.18
2023-05-09T07:43:56.555Z,35.95
2023-05-09T07:46:24.082Z,34.71
2023-05-09T07:48:52.882Z,33.78
2023-05-09T07:51:20.346Z,34.80
2023-05-09T07:53:47.814Z,34.10
2023-05-09T07:56:15.273Z,33.41
2023-05-09T07:58:42.721Z,33.49
2023-05-09T08:01:10.214Z,35.78
2023-05-09T08:03:37.768Z,34.14
2023-05-09T08:06:06.702Z,34.16
2023-05-09T08:08:34.567Z,33.72
2023-05-09T08:11:02.081Z,31.23
2023-05-09T08:13:29.556Z,32.31
2023-05-09T08:15:57.891Z,32.52
2023-05-09T08:18:25.389Z,31.17
2023-05-09T08:20:52.849Z,33.01
2023-05-09T08:23:21.637Z,33.13
2023-05-09T08:25:49.122Z,32.46
2023-05-09T08:28:16.728Z,31.70
2023-05-09T08:30:44.170Z,32.69
2023-05-09T08:33:11.702Z,33.62
2023-05-09T08:35:39.178Z,33.29
2023-05-09T08:38:06.619Z,30.44
2023-05-09T08:40:38.223Z,31.49
2023-05-09T08:43:07.585Z,32.44
2023-05-09T08:45:39.395Z,32.35
2023-05-09T08:48:07.907Z,32.50
2023-05-09T08:50:35.866Z,32.28
2023-05-09T08:53:03.646Z,32.31
2023-05-09T08:55:31.332Z,32.48
2023-05-09T08:58:00.615Z,32.94
2023-05-09T09:00:28.896Z,32.99
2023-05-09T09:02:58.021Z,33.61
2023-05-09T09:05:40.645Z,32.26
2023-05-09T09:08:09.830Z,32.16
2023-05-09T09:10:41.473Z,32.32
2023-05-09T09:13:12.917Z,32.60
2023-05-09T09:15:43.997Z,32.80
2023-05-09T09:18:13.478Z,32.65
2023-05-09T09:20:45.950Z,33.39
2023-05-09T09:23:17.453Z,34.17
2023-05-09T09:25:47.037Z,33.96
2023-05-09T09:28:16.131Z,35.34
2023-05-09T09:30:48.298Z,34.32
2023-05-09T09:33:22.482Z,34.91
2023-05-09T09:35:51.411Z,34.26
2023-05-09T09:38:20.018Z,34.24
2023-05-09T09:40:53.806Z,34.37
2023-05-09T09:43:28.371Z,32.53
2023-05-09T09:45:57.018Z,32.28
2023-05-09T09:48:25.531Z,32.61
2023-05-09T09:50:55.113Z,33.14
2023-05-09T09:53:23.787Z,34.36
2023-05-09T09:55:53.235Z,34.14
2023-05-09T09:58:24.695Z,34.12
2023-05-09T10:01:07.084Z,36.03
2023-05-09T10:03:39.385Z,34.99
2023-05-09T10:06:10.829Z,34.97
2023-05-09T10:08:38.348Z,34.22
2023-05-09T10:11:06.040Z,34.13
2023-05-09T10:13:37.302Z,33.20
2023-05-09T10:16:06.380Z,33.38
2023-05-09T10:18:34.580Z,33.83
2023-05-09T10:21:05.103Z,33.74
2023-05-09T10:23:35.732Z,33.13
2023-05-09T10:26:10.694Z,32.89
2023-05-09T10:28:41.405Z,34.09
2023-05-09T10:31:13.711Z,32.56
2023-05-09T10:33:47.737Z,32.52
2023-05-09T10:36:18.795Z,32.44
2023-05-09T10:38:47.534Z,32.26
2023-05-09T10:41:16.727Z,31.51
2023-05-09T10:43:46.447Z,33.31
2023-05-09T10:46:14.455Z,34.31
2023-05-09T10:48:43.080Z,31.12
2023-05-09T10:51:10.870Z,29.64
2023-05-09T10:53:43.577Z,31.96
2023-05-09T10:56:23.508Z,31.27
2023-05-09T10:58:52.500Z,29.55
2023-05-09T11:01:30.434Z,31.44
2023-05-09T11:03:59.960Z,31.53
2023-05-09T11:06:49.221Z,31.68
2023-05-09T11:09:28.320Z,30.90
2023-05-09T11:11:57.813Z,31.50
2023-05-09T11:14:34.293Z,29.90
2023-05-09T11:17:04.102Z,30.63
2023-05-09T11:19:36.890Z,30.85
2023-05-09T11:22:13.700Z,30.23
2023-05-09T11:24:45.323Z,30.46
2023-05-09T11:27:17.081Z,29.54
2023-05-09T11:29:47.309Z,30.92
2023-05-09T11:32:16.412Z,30.19
2023-05-09T11:34:45.638Z,28.51
2023-05-09T11:37:14.394Z,29.80
2023-05-09T11:39:59.076Z,30.61
2023-05-09T11:42:29.021Z,28.97
2023-05-09T11:44:59.384Z,30.89
2023-05-09T11:47:28.827Z,30.56
2023-05-09T11:49:56.520Z,31.02
2023-05-09T11:52:23.974Z,30.99
2023-05-09T11:54:51.444Z,30.05
2023-05-09T11:57:18.984Z,28.31
2023-05-09T11:59:46.709Z,30.16
2023-05-09T12:02:15.561Z,31.03
2023-05-09T12:04:44.080Z,31.48
2023-05-09T12:07:12.960Z,33.05
2023-05-09T12:09:40.589Z,31.82
2023-05-09T12:12:11.853Z,29.94
2023-05-09T12:14:40.253Z,29.49
2023-05-09T12:17:08.091Z,29.92
2023-05-09T12:19:37.681Z,31.75
2023-05-09T12:22:06.719Z,31.86
2023-05-09T12:24:36.687Z,31.14
2023-05-09T12:27:04.802Z,30.07
2023-05-09T12:29:32.596Z,29.70
2023-05-09T12:32:01.002Z,29.06
2023-05-09T12:34:28.755Z,28.66
2023-05-09T12:36:59.933Z,30.41
2023-05-09T12:39:27.454Z,31.02
2023-05-09T12:42:01.467Z,33.32
2023-05-09T12:44:30.241Z,32.02
2023-05-09T12:46:59.253Z,32.38
2023-05-09T12:49:27.690Z,32.13
2023-05-09T12:51:58.350Z,32.06
2023-05-09T12:54:26.869Z,32.91
2023-05-09T12:56:56.846Z,33.86
2023-05-09T12:59:26.088Z,33.13
2023-05-09T13:01:55.505Z,31.96
2023-05-09T13:04:23.701Z,30.83
2023-05-09T13:06:52.121Z,31.11
2023-05-09T13:09:20.981Z,31.71
2023-05-09T13:11:48.609Z,31.89
2023-05-09T13:14:16.275Z,31.20
2023-05-09T13:16:44.824Z,31.42
2023-05-09T13:19:12.399Z,30.81
2023-05-09T13:21:40.345Z,32.79
2023-05-09T13:24:08.192Z,33.10
2023-05-09T13:26:37.022Z,31.54
2023-05-09T13:29:04.613Z,30.89
2023-05-09T13:31:32.523Z,31.67
2023-05-09T13:33:59.995Z,32.47
2023-05-09T13:36:27.478Z,32.16
2023-05-09T13:38:54.966Z,32.48
2023-05-09T13:41:23.797Z,32.45
2023-05-09T13:43:52.704Z,34.00
2023-05-09T13:46:20.175Z,33.75
2023-05-09T13:48:48.518Z,34.83
2023-05-09T13:51:16.026Z,36.26
2023-05-09T13:53:43.556Z,36.76
2023-05-09T13:56:11.041Z,36.60
2023-05-09T13:58:38.576Z,36.16
2023-05-09T14:01:07.683Z,36.76
2023-05-09T14:03:35.331Z,35.65
2023-05-09T14:06:03.579Z,37.39
2023-05-09T14:08:31.055Z,36.98
2023-05-09T14:10:58.514Z,36.62
2023-05-09T14:13:26.092Z,38.21
2023-05-09T14:15:53.637Z,37.68
2023-05-09T14:18:22.443Z,37.40
2023-05-09T14:20:50.107Z,37.81
2023-05-09T14:23:17.596Z,36.49
2023-05-09T14:25:45.195Z,35.46
2023-05-09T14:28:12.814Z,35.84
2023-05-09T14:30:40.271Z,35.29
2023-05-09T14:33:07.945Z,35.46
2023-05-09T14:35:38.413Z,34.79
2023-05-09T14:38:07.390Z,34.53
2023-05-09T14:40:34.890Z,34.26
2023-05-09T14:43:02.884Z,35.98
2023-05-09T14:45:30.517Z,35.40
2023-05-09T14:47:58.273Z,34.06
2023-05-09T14:50:25.828Z,32.58
2023-05-09T14:52:54.683Z,33.92
2023-05-09T14:55:23.008Z,34.92
2023-05-09T14:57:50.777Z,34.11
2023-05-09T15:00:21.938Z,33.97
2023-05-09T15:02:50.306Z,33.25
2023-05-09T15:05:18.142Z,34.11
2023-05-09T15:07:45.604Z,34.92
2023-05-09T15:10:14.727Z,33.93
2023-05-09T15:12:42.530Z,34.68
2023-05-09T15:15:14.718Z,33.61
2023-05-09T15:17:44.017Z,34.54
2023-05-09T15:20:13.353Z,35.86
2023-05-09T15:22:40.984Z,35.34
2023-05-09T15:25:09.253Z,34.08
2023-05-09T15:27:38.433Z,35.04
2023-05-09T15:30:07.003Z,35.67
2023-05-09T15:32:35.887Z,34.92
2023-05-09T15:35:03.439Z,35.33
2023-05-09T15:37:30.901Z,33.98
2023-05-09T15:39:58.341Z,34.33
2023-05-09T15:42:26.161Z,34.37
2023-05-09T15:44:55.174Z,33.32
2023-05-09T15:47:22.653Z,32.82
2023-05-09T15:49:50.199Z,33.39
2023-05-09T15:52:18.072Z,32.83
2023-05-09T15:54:45.969Z,33.49
2023-05-09T15:57:13.558Z,33.61
2023-05-09T15:59:41.178Z,33.35
2023-05-09T16:02:10.704Z,34.20
2023-05-09T16:04:38.440Z,34.34
2023-05-09T16:07:05.938Z,33.70
2023-05-09T16:09:33.776Z,35.09
2023-05-09T16:12:01.683Z,34.88
2023-05-09T16:14:29.206Z,34.78
2023-05-09T16:16:56.726Z,34.88
2023-05-09T16:19:25.501Z,35.29
2023-05-09T16:21:53.219Z,35.58
2023-05-09T16:24:20.673Z,35.27
2023-05-09T16:26:48.250Z,36.29
2023-05-09T16:29:15.723Z,36.40
2023-05-09T16:31:44.904Z,36.76
2023-05-09T16:34:12.481Z,36.65
2023-05-09T16:36:41.342Z,36.70
2023-05-09T16:39:08.807Z,36.61
2023-05-09T16:41:36.271Z,37.34
2023-05-09T16:44:03.754Z,37.07
2023-05-09T16:46:31.220Z,37.20
2023-05-09T16:48:58.719Z,36.99
2023-05-09T16:51:26.289Z,37.20
2023-05-09T16:53:55.238Z,37.62
2023-05-09T16:56:23.313Z,36.97
2023-05-09T16:58:51.619Z,37.16
2023-05-09T17:01:19.164Z,37.07
2023-05-09T17:03:48.022Z,37.38
2023-05-09T17:06:15.530Z,38.43
2023-05-09T17:08:43.239Z,39.42
2023-05-09T17:11:12.382Z,38.58
2023-05-09T17:13:39.994Z,38.21
2023-05-09T17:16:07.737Z,38.24
2023-05-09T17:18:37.982Z,38.01
2023-05-09T17:21:06.542Z,38.84
2023-05-09T17:23:34.021Z,38.74
2023-05-09T17:26:01.477Z,38.99
2023-05-09T17:28:30.422Z,39.22
2023-05-09T17:30:59.089Z,39.08
2023-05-09T17:33:26.764Z,39.30
2023-05-09T17:35:54.559Z,39.27
2023-05-09T17:38:22.073Z,39.55
2023-05-09T17:40:49.965Z,39.81
2023-05-09T17:43:17.435Z,40.12
2023-05-09T17:45:46.673Z,39.68
2023-05-09T17:48:14.528Z,39.48
2023-05-09T17:50:42.092Z,38.76
2023-05-09T17:53:09.868Z,38.84
2023-05-09T17:55:37.443Z,38.80
2023-05-09T17:58:04.911Z,39.62
2023-05-09T18:00:33.387Z,39.94
2023-05-09T18:03:04.003Z,40.29
2023-05-09T18:05:31.645Z,40.65
2023-05-09T18:08:01.032Z,41.16
2023-05-09T18:10:28.951Z,41.03
2023-05-09T18:12:56.657Z,41.41
2023-05-09T18:15:26.079Z,42.69
2023-05-09T18:17:54.623Z,43.10
2023-05-09T18:20:23.581Z,43.99
2023-05-09T18:22:51.046Z,44.40
2023-05-09T18:25:18.573Z,45.97
2023-05-09T18:27:46.049Z,45.70
2023-05-09T18:30:14.606Z,45.86
2023-05-09T18:32:42.265Z,45.95
2023-05-09T18:35:10.348Z,46.30
2023-05-09T18:37:39.402Z,46.41
2023-05-09T18:40:10.609Z,46.52
2023-05-09T18:42:38.263Z,47.14
2023-05-09T18:45:07.110Z,47.67
2023-05-09T18:47:34.605Z,48.95
2023-05-09T18:50:03.922Z,49.10
2023-05-09T18:52:32.345Z,49.02
2023-05-09T18:55:01.251Z,49.89
2023-05-09T18:57:29.172Z,49.90
2023-05-09T18:59:56.666Z,50.60
2023-05-09T19:02:24.364Z,50.85
2023-05-09T19:04:52.374Z,50.94
2023-05-09T19:07:19.839Z,52.12
2023-05-09T19:09:47.606Z,53.32
2023-05-09T19:12:17.600Z,54.57
2023-05-09T19:14:45.065Z,54.82
2023-05-09T19:17:12.522Z,54.62
2023-05-09T19:19:40.232Z,55.29
2023-05-09T19:22:07.748Z,55.31
2023-05-09T19:24:35.245Z,55.56
2023-05-09T19:27:02.735Z,56.31
2023-05-09T19:29:31.561Z,57.40
2023-05-09T19:31:59.190Z,58.81
2023-05-09T19:34:27.070Z,60.31
2023-05-09T19:36:54.587Z,61.34
2023-05-09T19:39:22.071Z,62.13
2023-05-09T19:41:49.574Z,62.70
2023-05-09T19:44:17.121Z,62.62
2023-05-09T19:46:45.999Z,64.69
2023-05-09T19:49:17.147Z,64.59
2023-05-09T19:51:45.609Z,66.25
2023-05-09T19:54:14.070Z,68.82
2023-05-09T19:56:41.749Z,67.49
2023-05-09T19:59:09.213Z,67.26
2023-05-09T20:01:36.719Z,67.06
2023-05-09T20:04:06.185Z,66.51
2023-05-09T20:06:33.755Z,67.32
2023-05-09T20:09:01.238Z,67.25
2023-05-09T20:11:28.720Z,67.55
2023-05-09T20:13:56.215Z,67.79
2023-05-09T20:16:23.775Z,69.08
2023-05-09T20:18:52.226Z,69.98
2023-05-09T20:21:21.040Z,69.21
2023-05-09T20:23:48.500Z,70.21
2023-05-09T20:26:16.003Z,73.18
2023-05-09T20:28:43.468Z,70.07
2023-05-09T20:31:11.169Z,68.88
2023-05-09T20:33:39.950Z,67.36
2023-05-09T20:36:09.380Z,67.77
2023-05-09T20:38:38.253Z,69.82
2023-05-09T20:41:05.707Z,70.30
2023-05-09T20:43:33.207Z,70.91
2023-05-09T20:46:00.907Z,69.08
2023-05-09T20:48:28.430Z,68.51
2023-05-09T20:50:55.917Z,70.31
2023-05-09T20:53:26.359Z,69.75
2023-05-09T20:55:55.243Z,70.00
2023-05-09T20:58:22.765Z,67.98
2023-05-09T21:00:50.367Z,66.90
2023-05-09T21:03:18.167Z,65.40
2023-05-09T21:05:45.666Z,65.67
2023-05-09T21:08:13.121Z,64.32
2023-05-09T21:10:41.145Z,63.41
2023-05-09T21:13:10.109Z,63.19
2023-05-09T21:15:37.712Z,63.11
2023-05-09T21:18:05.866Z,62.48
2023-05-09T21:20:33.360Z,62.17
2023-05-09T21:23:00.806Z,62.71
2023-05-09T21:25:28.274Z,60.75
2023-05-09T21:27:56.271Z,60.08
2023-05-09T21:30:25.262Z,59.13
2023-05-09T21:32:52.783Z,58.91
2023-05-09T21:35:20.566Z,59.01
2023-05-09T21:37:50.336Z,58.40
2023-05-09T21:40:18.028Z,57.63
2023-05-09T21:42:45.636Z,57.72
2023-05-09T21:45:13.113Z,57.38
2023-05-09T21:47:42.028Z,57.29
2023-05-09T21:50:10.515Z,57.05
2023-05-09T21:52:38.004Z,57.18
2023-05-09T21:55:06.086Z,57.24
2023-05-09T21:57:33.569Z,56.58
2023-05-09T22:00:01.921Z,56.19
2023-05-09T22:02:29.590Z,56.29
2023-05-09T22:04:58.440Z,55.86
2023-05-09T22:07:26.101Z,56.01
2023-05-09T22:09:54.057Z,56.12
2023-05-09T22:12:21.545Z,56.87
2023-05-09T22:14:56.295Z,57.06
2023-05-09T22:17:24.169Z,57.74
2023-05-09T22:19:51.932Z,57.21
2023-05-09T22:22:21.233Z,56.14
2023-05-09T22:24:49.697Z,56.61
2023-05-09T22:27:17.266Z,57.13
2023-05-09T22:29:45.577Z,57.66
2023-05-09T22:32:13.073Z,57.05
2023-05-09T22:34:40.752Z,58.47
2023-05-09T22:37:08.257Z,58.71
2023-05-09T22:39:37.025Z,59.69
2023-05-09T22:42:04.808Z,59.84
2023-05-09T22:44:33.208Z,60.66
2023-05-09T22:47:00.675Z,59.10
2023-05-09T22:49:28.164Z,58.88
2023-05-09T22:51:55.619Z,58.58
2023-05-09T22:54:23.214Z,57.94
2023-05-09T22:56:52.127Z,57.37
2023-05-09T22:59:20.292Z,57.66
2023-05-09T23:01:47.727Z,56.98
2023-05-09T23:04:15.317Z,56.59
2023-05-09T23:06:42.791Z,56.21
2023-05-09T23:09:10.505Z,56.00
2023-05-09T23:11:38.229Z,57.49
2023-05-09T23:14:07.346Z,57.88
2023-05-09T23:16:34.841Z,58.95
2023-05-09T23:19:02.607Z,58.95
2023-05-09T23:21:30.126Z,58.85
2023-05-09T23:23:57.563Z,59.26
2023-05-09T23:26:25.094Z,58.12
2023-05-09T23:28:55.047Z,58.50
2023-05-09T23:31:23.921Z,57.96
2023-05-09T23:33:51.431Z,57.25
2023-05-09T23:36:18.910Z,57.29
2023-05-09T23:38:46.419Z,57.47
2023-05-09T23:41:14.218Z,57.64
2023-05-09T23:43:41.903Z,57.64
2023-05-09T23:46:09.423Z,56.89
2023-05-09T23:48:38.276Z,56.52
2023-05-09T23:51:05.917Z,56.69
2023-05-09T23:53:34.947Z,56.34
2023-05-09T23:56:02.788Z,56.09
2023-05-09T23:58:30.318Z,56.00
